Time;durP1;ratioP1;P1;durP2;ratioP2;P2;SDS_P1;SDS_P2;PMS_P1;PMS_P2;Temp;Humidity;BMP_temperature;BMP_pressure;BME280_temperature;BME280_humidity;BME280_pressure;Samples;Min_cycle;Max_cycle;Signal;HPM_P1;HPM_P2
2023/01/19 00:00:25;;;;;;;18.80;3.80;;;;;;;;;;5055721;28;20036;-33
2023/01/19 00:02:53;;;;;;;15.52;3.50;;;;;;;;;;5073162;28;20043;-31
2023/01/19 00:05:21;;;;;;;45.40;4.35;;;;;;;;;;5072492;28;20068;-31
2023/01/19 00:07:47;;;;;;;35.17;4.57;;;;;;;;;;5073666;28;20020;-30
2023/01/19 00:10:14;;;;;;;25.75;3.95;;;;;;;;;;5073358;28;20043;-31
2023/01/19 00:12:41;;;;;;;24.75;3.90;;;;;;;;;;5073596;28;20017;-31
2023/01/19 00:15:09;;;;;;;24.67;3.70;;;;;;;;;;5073522;28;20115;-31
2023/01/19 00:17:36;;;;;;;20.17;3.92;;;;;;;;;;5073425;28;20052;-30
2023/01/19 00:20:03;;;;;;;33.53;4.53;;;;;;;;;;5073209;28;20364;-30
2023/01/19 00:22:30;;;;;;;36.35;4.18;;;;;;;;;;5073545;28;20127;-30
2023/01/19 00:24:57;;;;;;;20.63;4.00;;;;;;;;;;5073615;28;20024;-37
2023/01/19 00:27:24;;;;;;;31.30;5.07;;;;;;;;;;5073682;28;20062;-30
2023/01/19 00:29:51;;;;;;;41.22;5.45;;;;;;;;;;5072275;28;20096;-31
2023/01/19 00:32:19;;;;;;;40.85;5.25;;;;;;;;;;5070426;28;20036;-30
2023/01/19 00:34:48;;;;;;;49.55;5.80;;;;;;;;;;5069534;28;20039;-33
2023/01/19 00:37:16;;;;;;;32.40;5.00;;;;;;;;;;5070886;28;20515;-31
2023/01/19 00:39:43;;;;;;;44.47;5.32;;;;;;;;;;5071249;28;20033;-32
2023/01/19 00:44:57;;;;;;;32.70;5.10;;;;;;;;;;5072102;28;20039;-30
2023/01/19 00:47:27;;;;;;;38.50;4.75;;;;;;;;;;5054134;28;20394;-29
2023/01/19 00:49:54;;;;;;;40.15;5.13;;;;;;;;;;5072585;28;20024;-29
2023/01/19 00:52:21;;;;;;;33.45;4.35;;;;;;;;;;5054734;28;20032;-29
2023/01/19 00:54:48;;;;;;;43.13;5.40;;;;;;;;;;5073395;28;20017;-29
2023/01/19 00:57:17;;;;;;;41.38;4.85;;;;;;;;;;5072897;28;20024;-30
2023/01/19 00:59:45;;;;;;;21.70;3.70;;;;;;;;;;5072568;28;20483;-29
2023/01/19 01:02:12;;;;;;;26.42;4.05;;;;;;;;;;5071308;28;20701;-30
2023/01/19 01:04:39;;;;;;;32.53;4.85;;;;;;;;;;5063065;28;20123;-30
2023/01/19 01:07:06;;;;;;;32.42;4.82;;;;;;;;;;5071845;28;20060;-30
2023/01/19 01:09:33;;;;;;;45.42;7.22;;;;;;;;;;5071590;28;20475;-29
2023/01/19 01:12:00;;;;;;;65.63;10.48;;;;;;;;;;5071983;28;20063;-29
2023/01/19 01:14:27;;;;;;;35.30;7.93;;;;;;;;;;5072568;28;20025;-29
2023/01/19 01:16:59;;;;;;;44.00;10.95;;;;;;;;;;5070279;28;20218;-31
2023/01/19 01:19:27;;;;;;;36.63;7.70;;;;;;;;;;5068791;28;20761;-36
2023/01/19 01:21:54;;;;;;;30.02;6.82;;;;;;;;;;5069880;28;20032;-30
2023/01/19 01:24:21;;;;;;;23.40;5.80;;;;;;;;;;5067850;28;20115;-29
2023/01/19 01:26:48;;;;;;;22.40;5.30;;;;;;;;;;5068964;28;20029;-29
2023/01/19 01:29:16;;;;;;;26.42;5.70;;;;;;;;;;5067761;28;20803;-31
2023/01/19 01:31:43;;;;;;;21.55;4.78;;;;;;;;;;5066858;28;20033;-30
2023/01/19 01:34:10;;;;;;;16.38;5.05;;;;;;;;;;5049956;28;20823;-29
2023/01/19 01:36:37;;;;;;;21.75;4.95;;;;;;;;;;5069707;28;20047;-31
2023/01/19 01:39:04;;;;;;;18.83;4.57;;;;;;;;;;5068789;28;20032;-33
2023/01/19 01:41:32;;;;;;;26.23;4.35;;;;;;;;;;5069226;28;20642;-31
2023/01/19 01:44:00;;;;;;;23.95;4.68;;;;;;;;;;5069740;28;20021;-35
2023/01/19 01:46:29;;;;;;;20.05;4.43;;;;;;;;;;5069172;28;20788;-30
2023/01/19 01:49:13;;;;;;;20.23;4.32;;;;;;;;;;5067895;28;20028;-30
2023/01/19 01:51:53;;;;;;;19.15;4.15;;;;;;;;;;5070150;28;20600;-31
2023/01/19 01:54:20;;;;;;;23.17;4.25;;;;;;;;;;5067466;28;20050;-30
2023/01/19 01:56:48;;;;;;;26.35;4.80;;;;;;;;;;5068639;28;20024;-33
2023/01/19 01:59:24;;;;;;;25.48;4.50;;;;;;;;;;5068435;28;20047;-32
2023/01/19 02:04:38;;;;;;;21.50;4.20;;;;;;;;;;5068867;28;20067;-29
2023/01/19 02:15:22;;;;;;;9.57;3.80;;;;;;;;;;5048783;28;20051;-30
2023/01/19 02:17:53;;;;;;;17.70;3.90;;;;;;;;;;5033978;28;20430;-32
2023/01/19 02:20:22;;;;;;;15.48;4.68;;;;;;;;;;5029628;28;20040;-30
2023/01/19 02:22:50;;;;;;;28.70;7.00;;;;;;;;;;5043026;28;20471;-32
2023/01/19 02:25:18;;;;;;;25.95;7.00;;;;;;;;;;5047669;28;20029;-30
2023/01/19 02:27:45;;;;;;;26.85;6.03;;;;;;;;;;5047669;28;20059;-31
2023/01/19 02:30:15;;;;;;;23.08;6.85;;;;;;;;;;5047658;28;20039;-33
2023/01/19 02:32:42;;;;;;;35.58;8.80;;;;;;;;;;5047764;28;20144;-31
2023/01/19 02:35:10;;;;;;;39.42;9.40;;;;;;;;;;5037084;28;20060;-32
2023/01/19 02:37:39;;;;;;;41.60;8.48;;;;;;;;;;5048141;28;20480;-31
2023/01/19 02:40:08;;;;;;;42.25;8.25;;;;;;;;;;5029029;28;20055;-30
2023/01/19 02:42:38;;;;;;;42.50;7.35;;;;;;;;;;5048169;28;20064;-29
2023/01/19 02:45:07;;;;;;;29.00;7.40;;;;;;;;;;5042624;28;20082;-31
2023/01/19 02:47:38;;;;;;;34.20;7.93;;;;;;;;;;5047146;28;20463;-30
2023/01/19 02:50:26;;;;;;;36.92;7.63;;;;;;;;;;5047879;28;20593;-32
2023/01/19 02:53:01;;;;;;;49.00;8.65;;;;;;;;;;5048097;28;20111;-34
2023/01/19 02:55:30;;;;;;;50.42;8.63;;;;;;;;;;5047601;28;20025;-31
2023/01/19 02:58:11;;;;;;;58.83;9.18;;;;;;;;;;5029254;28;20033;-33
2023/01/19 03:00:54;;;;;;;69.07;9.30;;;;;;;;;;5045336;28;20037;-31
2023/01/19 03:03:28;;;;;;;58.30;9.00;;;;;;;;;;5047805;28;20048;-32
2023/01/19 03:06:03;;;;;;;53.45;8.48;;;;;;;;;;5048765;28;20029;-31
2023/01/19 03:08:30;;;;;;;76.38;9.73;;;;;;;;;;5046561;28;20029;-30
2023/01/19 03:11:08;;;;;;;67.47;9.07;;;;;;;;;;5047884;28;20075;-30
2023/01/19 03:13:54;;;;;;;69.25;9.50;;;;;;;;;;5047570;28;20024;-29
2023/01/19 03:16:23;;;;;;;61.88;9.82;;;;;;;;;;5047894;28;20032;-31
2023/01/19 03:18:55;;;;;;;55.42;8.93;;;;;;;;;;5047464;28;20032;-31
2023/01/19 03:21:25;;;;;;;36.85;7.35;;;;;;;;;;5029986;28;20143;-31
2023/01/19 03:23:52;;;;;;;36.13;7.70;;;;;;;;;;5047457;28;20025;-30
2023/01/19 03:26:21;;;;;;;32.85;7.00;;;;;;;;;;5052802;28;20059;-30
2023/01/19 03:28:48;;;;;;;34.75;6.03;;;;;;;;;;5052989;28;20029;-30
2023/01/19 03:31:26;;;;;;;33.72;4.75;;;;;;;;;;5052769;28;20615;-29
2023/01/19 03:34:13;;;;;;;25.65;5.40;;;;;;;;;;5052453;28;20024;-29
2023/01/19 03:36:46;;;;;;;28.20;5.38;;;;;;;;;;5052068;28;20127;-30
2023/01/19 03:39:16;;;;;;;32.60;5.63;;;;;;;;;;5052741;28;20059;-30
2023/01/19 03:41:44;;;;;;;31.08;5.72;;;;;;;;;;5052952;28;20029;-30
2023/01/19 03:44:11;;;;;;;23.33;5.85;;;;;;;;;;5053389;28;20800;-30
2023/01/19 03:46:39;;;;;;;31.15;5.43;;;;;;;;;;5053428;28;20471;-30
2023/01/19 03:49:07;;;;;;;26.85;5.43;;;;;;;;;;5053437;28;20158;-31
2023/01/19 03:51:37;;;;;;;32.10;6.22;;;;;;;;;;5051038;28;20166;-29
2023/01/19 03:54:05;;;;;;;39.83;6.05;;;;;;;;;;5053242;28;20537;-30
2023/01/19 03:56:32;;;;;;;27.48;6.55;;;;;;;;;;5050717;28;20029;-30
2023/01/19 03:58:59;;;;;;;22.20;5.25;;;;;;;;;;5053111;28;20434;-29
2023/01/19 04:01:26;;;;;;;35.10;6.18;;;;;;;;;;5053088;28;20047;-32
2023/01/19 04:03:53;;;;;;;25.40;6.25;;;;;;;;;;5053826;28;20131;-30
2023/01/19 04:06:21;;;;;;;29.00;5.22;;;;;;;;;;5054035;28;20078;-29
2023/01/19 04:08:51;;;;;;;16.83;5.28;;;;;;;;;;5053820;28;20111;-30
2023/01/19 04:11:18;;;;;;;19.65;5.38;;;;;;;;;;5053821;28;20475;-29
2023/01/19 04:13:45;;;;;;;26.75;5.53;;;;;;;;;;5053827;28;20029;-29
2023/01/19 04:16:12;;;;;;;32.00;5.65;;;;;;;;;;5051180;28;20368;-29
2023/01/19 04:18:41;;;;;;;26.55;4.82;;;;;;;;;;5053772;28;20661;-29
2023/01/19 04:21:08;;;;;;;35.70;5.55;;;;;;;;;;5053261;28;20674;-29
2023/01/19 04:23:35;;;;;;;34.42;5.75;;;;;;;;;;5053595;28;20166;-28
2023/01/19 04:26:04;;;;;;;32.13;5.65;;;;;;;;;;5053714;28;20407;-30
2023/01/19 04:28:31;;;;;;;36.13;5.57;;;;;;;;;;5035870;28;20539;-29
2023/01/19 04:30:58;;;;;;;30.13;5.65;;;;;;;;;;5053658;28;20029;-29
2023/01/19 04:33:25;;;;;;;35.10;5.65;;;;;;;;;;5053982;28;20021;-30
2023/01/19 04:35:52;;;;;;;29.83;5.32;;;;;;;;;;5053667;28;20025;-29
2023/01/19 04:38:20;;;;;;;34.22;5.03;;;;;;;;;;5053873;28;20022;-29
2023/01/19 04:40:48;;;;;;;46.72;5.93;;;;;;;;;;5053805;28;20111;-30
2023/01/19 04:43:15;;;;;;;31.58;5.28;;;;;;;;;;5053776;28;20102;-28
2023/01/19 04:45:45;;;;;;;26.95;5.10;;;;;;;;;;5053680;28;20028;-29
2023/01/19 04:48:13;;;;;;;33.40;5.15;;;;;;;;;;5053726;28;20052;-28
2023/01/19 04:50:40;;;;;;;34.63;4.82;;;;;;;;;;5053606;28;20400;-29
2023/01/19 04:53:08;;;;;;;24.45;4.85;;;;;;;;;;5053736;28;20029;-29
2023/01/19 04:55:35;;;;;;;24.83;4.55;;;;;;;;;;5053631;28;20141;-29
2023/01/19 04:58:02;;;;;;;28.20;5.00;;;;;;;;;;5053669;28;20387;-30
2023/01/19 05:00:29;;;;;;;24.15;4.18;;;;;;;;;;5053413;28;20017;-29
2023/01/19 05:02:56;;;;;;;19.67;4.50;;;;;;;;;;5052599;28;20082;-29
2023/01/19 05:05:23;;;;;;;21.45;4.90;;;;;;;;;;5052830;28;20119;-30
2023/01/19 05:07:50;;;;;;;35.15;5.68;;;;;;;;;;5052614;28;20021;-29
2023/01/19 05:10:17;;;;;;;26.20;5.65;;;;;;;;;;5052663;28;20057;-30
2023/01/19 05:12:44;;;;;;;28.38;5.07;;;;;;;;;;5052664;28;20052;-28
2023/01/19 05:15:11;;;;;;;25.17;4.32;;;;;;;;;;5053007;28;20037;-29
2023/01/19 05:17:38;;;;;;;25.88;4.47;;;;;;;;;;5053285;28;20036;-29
2023/01/19 05:20:05;;;;;;;21.92;4.60;;;;;;;;;;5053074;28;20057;-29
2023/01/19 05:22:32;;;;;;;16.50;4.50;;;;;;;;;;5053027;28;20541;-29
2023/01/19 05:25:00;;;;;;;23.50;4.40;;;;;;;;;;5052981;28;20029;-29
2023/01/19 05:27:27;;;;;;;17.25;4.55;;;;;;;;;;5053013;28;20057;-35
2023/01/19 05:29:54;;;;;;;22.20;4.50;;;;;;;;;;5052573;28;20083;-32
2023/01/19 05:32:21;;;;;;;19.83;4.18;;;;;;;;;;5052678;28;20029;-29
2023/01/19 05:34:48;;;;;;;15.05;4.72;;;;;;;;;;5052656;28;20021;-30
2023/01/19 05:37:15;;;;;;;11.23;4.15;;;;;;;;;;5051984;28;20025;-30
2023/01/19 05:39:42;;;;;;;16.73;4.03;;;;;;;;;;5052523;28;20387;-28
2023/01/19 05:42:09;;;;;;;21.17;4.60;;;;;;;;;;5052343;28;20038;-29
2023/01/19 05:44:36;;;;;;;15.27;3.97;;;;;;;;;;5052025;28;20247;-29
2023/01/19 05:47:03;;;;;;;14.00;4.20;;;;;;;;;;5041264;28;20032;-29
2023/01/19 05:49:30;;;;;;;21.00;4.63;;;;;;;;;;5052312;28;20033;-29
2023/01/19 05:51:57;;;;;;;29.55;4.28;;;;;;;;;;5052352;28;20028;-29
2023/01/19 05:54:24;;;;;;;15.52;4.25;;;;;;;;;;5052594;28;20017;-28
2023/01/19 05:56:51;;;;;;;17.35;4.68;;;;;;;;;;5052453;28;20040;-28
2023/01/19 05:59:22;;;;;;;18.63;4.07;;;;;;;;;;5052329;28;20041;-29
2023/01/19 06:01:53;;;;;;;22.30;4.20;;;;;;;;;;5041890;28;20585;-29
2023/01/19 06:04:20;;;;;;;19.77;4.45;;;;;;;;;;5052037;28;20294;-30
2023/01/19 06:06:48;;;;;;;17.58;4.40;;;;;;;;;;5052116;28;20055;-29
2023/01/19 06:09:16;;;;;;;16.08;4.35;;;;;;;;;;5052203;28;20112;-29
2023/01/19 06:11:46;;;;;;;13.70;4.10;;;;;;;;;;5052402;28;20509;-33
2023/01/19 06:14:13;;;;;;;16.75;4.72;;;;;;;;;;5052243;28;20033;-30
2023/01/19 06:16:40;;;;;;;13.93;4.38;;;;;;;;;;5051607;28;20029;-28
2023/01/19 06:19:07;;;;;;;15.45;4.22;;;;;;;;;;5051501;28;20094;-29
2023/01/19 06:21:34;;;;;;;12.07;4.22;;;;;;;;;;5048592;28;20037;-29
2023/01/19 06:24:02;;;;;;;14.55;4.15;;;;;;;;;;5051658;28;20025;-29
2023/01/19 06:26:29;;;;;;;14.98;4.35;;;;;;;;;;5051875;28;20032;-29
2023/01/19 06:28:56;;;;;;;13.55;4.10;;;;;;;;;;5051996;28;20526;-30
2023/01/19 06:31:23;;;;;;;12.80;4.50;;;;;;;;;;5051599;28;20057;-30
2023/01/19 06:33:50;;;;;;;11.55;4.10;;;;;;;;;;5051682;28;20087;-30
2023/01/19 06:36:17;;;;;;;9.23;3.90;;;;;;;;;;5051912;28;20025;-32
2023/01/19 06:38:45;;;;;;;11.50;4.22;;;;;;;;;;5051755;28;20036;-32
2023/01/19 06:41:12;;;;;;;9.95;3.67;;;;;;;;;;5051628;28;20021;-32
2023/01/19 06:43:39;;;;;;;8.20;3.70;;;;;;;;;;5051791;28;20033;-30
2023/01/19 06:46:06;;;;;;;7.85;3.30;;;;;;;;;;5051888;28;20254;-29
2023/01/19 06:48:33;;;;;;;6.13;3.45;;;;;;;;;;5051567;28;20025;-29
2023/01/19 06:51:00;;;;;;;7.65;3.80;;;;;;;;;;5051102;28;20021;-30
2023/01/19 06:53:28;;;;;;;7.60;3.97;;;;;;;;;;5051058;28;20032;-30
2023/01/19 06:56:00;;;;;;;5.60;3.55;;;;;;;;;;5051006;28;20043;-29
2023/01/19 06:58:27;;;;;;;10.57;3.63;;;;;;;;;;5051163;28;20459;-30
2023/01/19 07:00:55;;;;;;;8.00;3.90;;;;;;;;;;5055690;28;20029;-32
2023/01/19 07:03:22;;;;;;;8.15;3.67;;;;;;;;;;5054867;28;20503;-29
2023/01/19 07:05:52;;;;;;;7.05;3.83;;;;;;;;;;5055007;28;20039;-30
2023/01/19 07:08:19;;;;;;;12.18;3.20;;;;;;;;;;5052743;28;20029;-31
2023/01/19 07:10:46;;;;;;;6.53;3.65;;;;;;;;;;5055006;28;20483;-30
2023/01/19 07:13:13;;;;;;;9.82;3.47;;;;;;;;;;5055020;28;20455;-29
2023/01/19 07:15:40;;;;;;;6.18;3.60;;;;;;;;;;5052167;28;20032;-30
2023/01/19 07:18:08;;;;;;;7.47;3.70;;;;;;;;;;5055303;28;20029;-30
2023/01/19 07:20:35;;;;;;;9.50;3.67;;;;;;;;;;5055410;28;20491;-31
2023/01/19 07:23:02;;;;;;;10.18;3.80;;;;;;;;;;5054672;28;20041;-31
2023/01/19 07:25:30;;;;;;;6.93;3.72;;;;;;;;;;5054416;28;20032;-29
2023/01/19 07:27:58;;;;;;;7.57;3.83;;;;;;;;;;5055301;28;20045;-28
2023/01/19 07:30:25;;;;;;;7.50;4.00;;;;;;;;;;5054447;28;20021;-30
2023/01/19 07:32:55;;;;;;;13.85;4.43;;;;;;;;;;5036749;28;20040;-28
2023/01/19 07:35:23;;;;;;;8.07;4.30;;;;;;;;;;5054677;28;20489;-30
2023/01/19 07:37:50;;;;;;;10.93;4.38;;;;;;;;;;5036593;28;20101;-29
2023/01/19 07:40:17;;;;;;;9.90;4.05;;;;;;;;;;5054399;28;20507;-29
2023/01/19 07:42:48;;;;;;;6.18;3.80;;;;;;;;;;5054473;28;20126;-28
2023/01/19 07:45:16;;;;;;;5.97;4.03;;;;;;;;;;5054427;28;21487;-30
2023/01/19 07:47:44;;;;;;;6.90;4.13;;;;;;;;;;5052107;28;20102;-28
2023/01/19 07:50:12;;;;;;;8.73;4.47;;;;;;;;;;5054850;28;20044;-28
2023/01/19 07:52:39;;;;;;;8.25;4.10;;;;;;;;;;5054838;28;20390;-28
2023/01/19 07:55:07;;;;;;;8.30;4.22;;;;;;;;;;5054870;28;20474;-29
2023/01/19 07:57:34;;;;;;;7.93;4.32;;;;;;;;;;5054800;28;20020;-28
2023/01/19 08:00:02;;;;;;;9.52;4.25;;;;;;;;;;5054716;28;20418;-28
2023/01/19 08:02:29;;;;;;;9.90;4.75;;;;;;;;;;5054373;28;20038;-29
2023/01/19 08:04:56;;;;;;;9.13;4.57;;;;;;;;;;5071425;28;20028;-28
2023/01/19 08:07:23;;;;;;;11.25;4.38;;;;;;;;;;5074548;28;20059;-28
2023/01/19 08:09:50;;;;;;;11.70;4.63;;;;;;;;;;5073926;28;20024;-28
2023/01/19 08:12:17;;;;;;;7.45;4.90;;;;;;;;;;5074365;28;20482;-28
2023/01/19 08:14:44;;;;;;;11.77;5.10;;;;;;;;;;5074600;28;20559;-28
2023/01/19 08:17:14;;;;;;;14.35;5.25;;;;;;;;;;5074463;28;20033;-28
2023/01/19 08:19:42;;;;;;;11.85;4.78;;;;;;;;;;5074323;28;20021;-28
2023/01/19 08:22:09;;;;;;;9.43;5.20;;;;;;;;;;5056422;28;20119;-28
2023/01/19 08:24:36;;;;;;;9.25;5.40;;;;;;;;;;5074403;28;20020;-29
2023/01/19 08:27:03;;;;;;;10.95;5.55;;;;;;;;;;5074322;28;20471;-29
2023/01/19 08:29:30;;;;;;;12.27;6.00;;;;;;;;;;5074074;28;20020;-28
2023/01/19 08:32:00;;;;;;;11.23;5.28;;;;;;;;;;5074208;28;20021;-28
2023/01/19 08:34:29;;;;;;;16.13;5.60;;;;;;;;;;5074131;28;20033;-27
2023/01/19 08:36:56;;;;;;;13.15;5.28;;;;;;;;;;5074279;28;20501;-26
2023/01/19 08:39:23;;;;;;;8.50;5.40;;;;;;;;;;5073938;28;20033;-26
2023/01/19 08:41:51;;;;;;;26.83;6.43;;;;;;;;;;5073900;28;20058;-26
2023/01/19 08:44:18;;;;;;;12.93;5.93;;;;;;;;;;5074004;28;20025;-26
2023/01/19 08:46:46;;;;;;;13.93;5.55;;;;;;;;;;5074145;28;20040;-26
2023/01/19 08:49:13;;;;;;;14.55;5.68;;;;;;;;;;5073662;28;20025;-27
2023/01/19 08:51:40;;;;;;;18.73;6.05;;;;;;;;;;5073905;28;20032;-26
2023/01/19 08:54:07;;;;;;;14.38;5.95;;;;;;;;;;5073696;28;20677;-26
2023/01/19 08:56:34;;;;;;;17.13;6.30;;;;;;;;;;5073798;28;20016;-26
2023/01/19 08:59:01;;;;;;;16.50;6.25;;;;;;;;;;5073507;28;20063;-27
2023/01/19 09:01:28;;;;;;;14.32;6.63;;;;;;;;;;5073483;28;20029;-26
2023/01/19 09:03:55;;;;;;;10.40;5.47;;;;;;;;;;5073262;28;20056;-26
2023/01/19 09:06:24;;;;;;;12.85;5.93;;;;;;;;;;5073551;28;20059;-26
2023/01/19 09:08:51;;;;;;;12.20;6.50;;;;;;;;;;5073403;28;20039;-26
2023/01/19 09:11:18;;;;;;;17.33;6.32;;;;;;;;;;5066989;28;20037;-26
2023/01/19 09:13:45;;;;;;;17.30;6.55;;;;;;;;;;5053141;28;20495;-26
2023/01/19 09:16:14;;;;;;;16.45;6.22;;;;;;;;;;5052825;28;20066;-26
2023/01/19 09:18:41;;;;;;;13.35;6.00;;;;;;;;;;5052980;28;20700;-26
2023/01/19 09:21:09;;;;;;;19.08;6.10;;;;;;;;;;5034807;28;20048;-27
2023/01/19 09:23:36;;;;;;;15.32;7.05;;;;;;;;;;5052468;28;20399;-27
2023/01/19 09:26:04;;;;;;;21.70;6.88;;;;;;;;;;5052595;28;20033;-26
2023/01/19 09:28:31;;;;;;;13.80;5.70;;;;;;;;;;5032896;28;20108;-26
2023/01/19 09:30:58;;;;;;;16.88;5.22;;;;;;;;;;5032975;28;20068;-26
2023/01/19 09:33:25;;;;;;;18.80;5.75;;;;;;;;;;5032860;28;20112;-26
2023/01/19 09:35:52;;;;;;;17.88;6.00;;;;;;;;;;5032925;28;20017;-26
2023/01/19 09:38:21;;;;;;;17.70;5.90;;;;;;;;;;5033018;28;20029;-26
2023/01/19 09:40:50;;;;;;;12.43;5.70;;;;;;;;;;5032743;28;20104;-26
2023/01/19 09:43:17;;;;;;;16.42;5.43;;;;;;;;;;5032654;28;20538;-26
2023/01/19 09:45:47;;;;;;;16.98;5.80;;;;;;;;;;5032851;28;20150;-26
2023/01/19 09:48:37;;;;;;;19.20;6.13;;;;;;;;;;5032862;28;20064;-25
2023/01/19 09:51:06;;;;;;;29.23;6.28;;;;;;;;;;5032422;28;20021;-26
2023/01/19 09:53:51;;;;;;;15.85;6.20;;;;;;;;;;5032530;28;20064;-25
2023/01/19 09:56:21;;;;;;;22.20;7.43;;;;;;;;;;5032718;28;20109;-25
2023/01/19 09:58:51;;;;;;;22.13;6.90;;;;;;;;;;5032624;28;20025;-26
2023/01/19 10:01:29;;;;;;;28.42;6.40;;;;;;;;;;5032393;28;20383;-26
2023/01/19 10:04:16;;;;;;;40.50;7.30;;;;;;;;;;5032216;28;20057;-26
2023/01/19 10:06:44;;;;;;;27.95;6.80;;;;;;;;;;5025368;28;20043;-26
2023/01/19 10:09:33;;;;;;;23.35;6.10;;;;;;;;;;5032357;28;20380;-25
2023/01/19 10:12:21;;;;;;;19.77;6.18;;;;;;;;;;5032308;28;20037;-26
2023/01/19 10:15:00;;;;;;;16.30;6.10;;;;;;;;;;5040292;28;20021;-25
2023/01/19 10:17:41;;;;;;;19.63;6.57;;;;;;;;;;5052386;28;20503;-26
2023/01/19 10:20:13;;;;;;;21.70;5.95;;;;;;;;;;5052163;28;20025;-27
2023/01/19 10:22:43;;;;;;;21.15;6.63;;;;;;;;;;5052025;28;20035;-26
2023/01/19 10:25:15;;;;;;;20.65;6.80;;;;;;;;;;5051984;28;20039;-26
2023/01/19 10:27:42;;;;;;;22.73;6.93;;;;;;;;;;5052118;28;20079;-26
2023/01/19 10:30:15;;;;;;;23.30;6.40;;;;;;;;;;5051982;28;20017;-26
2023/01/19 10:32:43;;;;;;;30.35;6.22;;;;;;;;;;5051772;28;20116;-25
2023/01/19 10:35:20;;;;;;;34.42;7.70;;;;;;;;;;5052002;28;20029;-26
2023/01/19 10:37:47;;;;;;;37.88;7.43;;;;;;;;;;5051764;28;20402;-26
2023/01/19 10:40:19;;;;;;;34.28;7.00;;;;;;;;;;5051878;28;20024;-26
2023/01/19 10:42:46;;;;;;;25.17;7.05;;;;;;;;;;5051807;28;20182;-26
2023/01/19 10:45:17;;;;;;;34.50;7.18;;;;;;;;;;5051809;28;20032;-26
2023/01/19 10:47:45;;;;;;;25.08;6.55;;;;;;;;;;5051768;28;20021;-25
2023/01/19 10:50:26;;;;;;;31.52;6.13;;;;;;;;;;5051678;28;20479;-25
2023/01/19 10:52:55;;;;;;;23.15;6.05;;;;;;;;;;5033497;28;20459;-26
2023/01/19 10:55:32;;;;;;;29.08;6.07;;;;;;;;;;5049010;28;20395;-26
2023/01/19 10:58:00;;;;;;;25.58;6.38;;;;;;;;;;5051738;28;20025;-26
2023/01/19 11:00:44;;;;;;;22.67;5.90;;;;;;;;;;5051420;28;20033;-27
2023/01/19 11:03:43;;;;;;;25.13;6.15;;;;;;;;;;5051463;28;20121;-26
2023/01/19 11:06:17;;;;;;;20.27;5.93;;;;;;;;;;5029007;28;20040;-26
2023/01/19 11:08:45;;;;;;;18.05;5.40;;;;;;;;;;5051461;28;20041;-27
2023/01/19 11:11:12;;;;;;;15.65;5.13;;;;;;;;;;5051697;28;20021;-25
2023/01/19 11:13:40;;;;;;;16.23;5.13;;;;;;;;;;5051602;28;20453;-26
2023/01/19 11:16:13;;;;;;;11.45;4.90;;;;;;;;;;5033918;28;20114;-26
2023/01/19 11:18:40;;;;;;;21.00;5.20;;;;;;;;;;5051698;28;20034;-25
2023/01/19 11:21:09;;;;;;;18.30;5.18;;;;;;;;;;5051477;28;20033;-26
2023/01/19 11:23:41;;;;;;;20.63;5.00;;;;;;;;;;5051454;28;20025;-27
2023/01/19 11:26:34;;;;;;;17.00;5.38;;;;;;;;;;5051373;28;20052;-26
2023/01/19 11:29:03;;;;;;;22.85;5.10;;;;;;;;;;5035495;28;20041;-27
2023/01/19 11:31:32;;;;;;;21.25;5.45;;;;;;;;;;5051374;28;20537;-27
2023/01/19 11:34:00;;;;;;;17.85;4.95;;;;;;;;;;5051439;28;20084;-27
2023/01/19 11:36:28;;;;;;;19.77;5.30;;;;;;;;;;5051289;28;20044;-26
2023/01/19 11:39:00;;;;;;;18.92;4.68;;;;;;;;;;5051334;28;20025;-26
2023/01/19 11:41:31;;;;;;;21.52;5.13;;;;;;;;;;5051297;28;20036;-26
2023/01/19 11:44:02;;;;;;;20.38;5.38;;;;;;;;;;5051262;28;20098;-26
2023/01/19 11:46:33;;;;;;;18.25;5.20;;;;;;;;;;5054120;28;20024;-25
2023/01/19 11:49:03;;;;;;;27.52;5.63;;;;;;;;;;5054743;28;20399;-26
2023/01/19 11:51:39;;;;;;;22.27;6.63;;;;;;;;;;5054857;28;20017;-26
2023/01/19 11:54:15;;;;;;;19.08;5.63;;;;;;;;;;5054724;28;20044;-27
2023/01/19 11:56:43;;;;;;;22.95;5.60;;;;;;;;;;5054771;28;20045;-26
2023/01/19 11:59:12;;;;;;;20.50;5.90;;;;;;;;;;5054772;28;20032;-26
2023/01/19 12:01:42;;;;;;;28.92;5.57;;;;;;;;;;5054617;28;20032;-27
2023/01/19 12:04:09;;;;;;;18.35;5.00;;;;;;;;;;5054566;28;20032;-26
2023/01/19 12:06:38;;;;;;;22.08;5.15;;;;;;;;;;5054669;28;20025;-27
2023/01/19 12:09:28;;;;;;;22.45;5.45;;;;;;;;;;5054464;28;20064;-27
2023/01/19 12:12:03;;;;;;;24.70;5.90;;;;;;;;;;5049233;28;20047;-26
2023/01/19 12:15:02;;;;;;;27.00;5.75;;;;;;;;;;5054597;28;20108;-26
2023/01/19 12:17:31;;;;;;;31.60;6.28;;;;;;;;;;5031829;28;20037;-27
2023/01/19 12:20:21;;;;;;;28.33;5.80;;;;;;;;;;5054325;28;20056;-26
2023/01/19 12:23:14;;;;;;;32.17;6.13;;;;;;;;;;5048877;28;20130;-28
2023/01/19 12:25:43;;;;;;;41.42;6.32;;;;;;;;;;5054335;28;20029;-26
2023/01/19 12:28:12;;;;;;;59.65;7.18;;;;;;;;;;5054313;28;20051;-25
2023/01/19 12:30:40;;;;;;;35.80;6.13;;;;;;;;;;5053631;28;20025;-26
2023/01/19 12:33:25;;;;;;;39.00;6.43;;;;;;;;;;5053629;28;20055;-27
2023/01/19 12:35:55;;;;;;;31.52;5.57;;;;;;;;;;5053215;28;20060;-27
2023/01/19 12:38:34;;;;;;;23.48;5.75;;;;;;;;;;5054101;28;20029;-26
2023/01/19 12:41:16;;;;;;;23.60;5.85;;;;;;;;;;5054024;28;20111;-26
2023/01/19 12:43:43;;;;;;;29.88;5.47;;;;;;;;;;5053841;28;20138;-29
2023/01/19 12:46:26;;;;;;;26.02;5.20;;;;;;;;;;5053907;28;20033;-29
2023/01/19 12:48:53;;;;;;;27.15;6.20;;;;;;;;;;5053724;28;20021;-28
2023/01/19 12:51:26;;;;;;;26.23;5.57;;;;;;;;;;5053842;28;20040;-28
2023/01/19 12:54:00;;;;;;;21.17;5.05;;;;;;;;;;5052734;28;20053;-28
2023/01/19 12:56:31;;;;;;;22.23;4.85;;;;;;;;;;5050158;28;20086;-29
2023/01/19 12:58:59;;;;;;;21.73;4.85;;;;;;;;;;5052938;28;20075;-30
2023/01/19 13:01:26;;;;;;;21.50;5.40;;;;;;;;;;5052931;28;20021;-28
2023/01/19 13:03:59;;;;;;;22.88;4.97;;;;;;;;;;5052273;28;20147;-29
2023/01/19 13:06:44;;;;;;;18.00;4.53;;;;;;;;;;5050073;28;20090;-28
2023/01/19 13:09:30;;;;;;;17.00;4.57;;;;;;;;;;5053396;28;20139;-29
2023/01/19 13:12:16;;;;;;;12.30;4.15;;;;;;;;;;5052948;28;20040;-28
2023/01/19 13:14:43;;;;;;;9.52;3.78;;;;;;;;;;5053469;28;20122;-29
2023/01/19 13:17:32;;;;;;;11.27;3.80;;;;;;;;;;5053273;28;20024;-30
2023/01/19 13:20:04;;;;;;;12.48;4.10;;;;;;;;;;5052983;28;20040;-29
2023/01/19 13:22:49;;;;;;;9.82;4.28;;;;;;;;;;5053077;28;20407;-29
2023/01/19 13:25:34;;;;;;;10.73;4.45;;;;;;;;;;5053111;28;20053;-28
2023/01/19 13:28:01;;;;;;;17.23;4.43;;;;;;;;;;5052974;28;20037;-28
2023/01/19 13:30:29;;;;;;;13.23;4.53;;;;;;;;;;5035066;28;20390;-29
2023/01/19 13:32:59;;;;;;;18.08;4.00;;;;;;;;;;5052947;28;20033;-28
2023/01/19 13:35:26;;;;;;;14.50;3.90;;;;;;;;;;5053165;28;20025;-28
2023/01/19 13:37:53;;;;;;;14.13;4.30;;;;;;;;;;5052648;28;20027;-29
2023/01/19 13:40:32;;;;;;;12.20;3.88;;;;;;;;;;5052385;28;20028;-36
2023/01/19 13:42:59;;;;;;;12.18;3.97;;;;;;;;;;5052530;28;20040;-29
2023/01/19 13:45:33;;;;;;;13.65;3.92;;;;;;;;;;5052606;28;20492;-28
2023/01/19 13:48:01;;;;;;;11.80;3.83;;;;;;;;;;5052694;28;20060;-28
2023/01/19 13:50:30;;;;;;;12.73;3.95;;;;;;;;;;5052467;28;20504;-31
2023/01/19 13:52:58;;;;;;;9.65;3.50;;;;;;;;;;5052562;28;20040;-29
2023/01/19 13:55:28;;;;;;;11.38;4.00;;;;;;;;;;5052392;28;20025;-29
2023/01/19 13:57:56;;;;;;;10.60;3.53;;;;;;;;;;5052559;28;20104;-28
2023/01/19 14:00:27;;;;;;;9.93;3.88;;;;;;;;;;5052567;28;20511;-28
2023/01/19 14:02:54;;;;;;;17.45;4.10;;;;;;;;;;5052382;28;20044;-28
2023/01/19 14:05:23;;;;;;;16.58;4.30;;;;;;;;;;5052513;28;20022;-28
2023/01/19 14:08:01;;;;;;;12.55;3.85;;;;;;;;;;5052075;28;20118;-29
2023/01/19 14:10:30;;;;;;;12.30;4.13;;;;;;;;;;5052515;28;20090;-28
2023/01/19 14:13:01;;;;;;;15.00;3.67;;;;;;;;;;5052334;28;20170;-31
2023/01/19 14:15:29;;;;;;;14.25;3.70;;;;;;;;;;5052489;28;20032;-27
2023/01/19 14:18:09;;;;;;;8.32;3.67;;;;;;;;;;5052344;28;20021;-30
2023/01/19 14:20:36;;;;;;;8.40;3.33;;;;;;;;;;5052297;28;20021;-30
2023/01/19 14:23:04;;;;;;;15.73;3.90;;;;;;;;;;5052024;28;20047;-30
2023/01/19 14:25:38;;;;;;;14.98;3.70;;;;;;;;;;5052269;28;20395;-30
2023/01/19 14:28:22;;;;;;;14.23;3.95;;;;;;;;;;5052025;28;20115;-30
2023/01/19 14:30:53;;;;;;;14.32;4.22;;;;;;;;;;5052101;28;20037;-31
2023/01/19 14:33:34;;;;;;;14.63;4.15;;;;;;;;;;5052215;28;20540;-30
2023/01/19 14:36:19;;;;;;;15.18;3.92;;;;;;;;;;5052099;28;20487;-31
2023/01/19 14:38:47;;;;;;;16.90;4.32;;;;;;;;;;5051999;28;20086;-30
2023/01/19 14:41:23;;;;;;;16.95;4.25;;;;;;;;;;5034144;28;20029;-30
2023/01/19 14:43:49;;;;;;;19.77;4.20;;;;;;;;;;5051963;28;20056;-35
2023/01/19 14:46:20;;;;;;;23.52;4.78;;;;;;;;;;5051663;28;20040;-30
2023/01/19 14:48:47;;;;;;;21.52;4.20;;;;;;;;;;5051187;28;20025;-32
2023/01/19 14:51:17;;;;;;;18.35;4.35;;;;;;;;;;5033371;28;20024;-31
2023/01/19 14:53:47;;;;;;;17.00;4.15;;;;;;;;;;5051511;28;20032;-30
2023/01/19 14:56:23;;;;;;;15.90;4.25;;;;;;;;;;5051302;28;20039;-31
2023/01/19 14:58:50;;;;;;;17.95;4.22;;;;;;;;;;5049919;28;20029;-31
2023/01/19 15:01:17;;;;;;;16.45;4.00;;;;;;;;;;5033143;28;20056;-30